createdAt,value
2023-01-17T00:03:58.488Z,100.00
2023-01-17T00:09:20.463Z,100.00
2023-01-17T00:14:23.880Z,100.00
2023-01-17T00:19:46.029Z,100.00
2023-01-17T00:25:08.079Z,100.00
2023-01-17T00:30:12.108Z,100.00
2023-01-17T00:35:16.138Z,100.00
2023-01-17T00:40:19.352Z,100.00
2023-01-17T00:45:41.337Z,100.00
2023-01-17T00:51:03.304Z,100.00
2023-01-17T00:56:26.728Z,100.00
2023-01-17T01:01:49.260Z,100.00
2023-01-17T01:07:11.744Z,100.00
2023-01-17T01:12:33.689Z,100.00
2023-01-17T01:17:55.644Z,100.00
2023-01-17T01:23:17.580Z,100.00
2023-01-17T01:28:39.529Z,100.00
2023-01-17T01:33:43.045Z,100.00
2023-01-17T01:38:46.571Z,100.00
2023-01-17T01:43:56.322Z,100.00
2023-01-17T01:49:05.329Z,100.00
2023-01-17T01:54:14.512Z,100.00
2023-01-17T01:59:20.558Z,100.00
2023-01-17T02:04:25.833Z,100.00
2023-01-17T02:09:29.053Z,100.00
2023-01-17T02:14:32.169Z,100.00
2023-01-17T02:20:23.492Z,100.00
2023-01-17T02:26:04.282Z,100.00
2023-01-17T02:31:37.910Z,100.00
2023-01-17T02:36:56.137Z,100.00
2023-01-17T02:42:06.560Z,100.00
2023-01-17T02:47:36.075Z,100.00
2023-01-17T02:53:09.686Z,100.00
2023-01-17T02:58:24.462Z,100.00
2023-01-17T03:03:44.774Z,100.00
2023-01-17T03:08:50.749Z,100.00
2023-01-17T03:13:58.194Z,100.00
2023-01-17T03:19:01.373Z,100.00
2023-01-17T03:24:04.671Z,100.00
2023-01-17T03:29:07.884Z,100.00
2023-01-17T03:34:11.296Z,100.00
2023-01-17T03:39:14.600Z,100.00
2023-01-17T03:44:17.917Z,100.00
2023-01-17T03:49:21.122Z,100.00
2023-01-17T03:54:24.326Z,100.00
2023-01-17T03:59:27.538Z,100.00
2023-01-17T04:04:30.746Z,100.00
2023-01-17T04:09:34.871Z,100.00
2023-01-17T04:14:37.897Z,100.00
2023-01-17T04:19:41.501Z,100.00
2023-01-17T04:24:44.697Z,100.00
2023-01-17T04:29:48.024Z,100.00
2023-01-17T04:34:51.423Z,100.00
2023-01-17T04:39:54.528Z,100.00
2023-01-17T04:44:57.734Z,100.00
2023-01-17T04:50:01.068Z,100.00
2023-01-17T04:55:05.549Z,100.00
2023-01-17T05:00:09.816Z,100.00
2023-01-17T05:05:13.717Z,100.00
2023-01-17T05:10:17.665Z,100.00
2023-01-17T05:15:20.983Z,100.00
2023-01-17T05:20:26.233Z,100.00
2023-01-17T05:25:32.270Z,100.00
2023-01-17T05:30:35.466Z,100.00
2023-01-17T05:35:38.735Z,100.00
2023-01-17T05:40:42.132Z,100.00
2023-01-17T05:45:48.006Z,100.00
2023-01-17T05:50:52.485Z,100.00
2023-01-17T05:55:55.856Z,100.00
2023-01-17T06:00:59.581Z,100.00
2023-01-17T06:06:02.899Z,100.00
2023-01-17T06:11:06.771Z,100.00
2023-01-17T06:16:10.277Z,100.00
2023-01-17T06:21:13.530Z,100.00
2023-01-17T06:26:16.852Z,100.00
2023-01-17T06:31:20.220Z,100.00
2023-01-17T06:36:24.690Z,100.00
2023-01-17T06:41:28.007Z,100.00
2023-01-17T06:46:31.143Z,100.00
2023-01-17T06:51:34.324Z,100.00
2023-01-17T06:56:37.770Z,100.00
2023-01-17T07:01:41.831Z,100.00
2023-01-17T07:06:45.270Z,100.00
2023-01-17T07:11:48.482Z,100.00
2023-01-17T07:16:52.195Z,100.00
2023-01-17T07:21:55.411Z,100.00
2023-01-17T07:26:58.919Z,100.00
2023-01-17T07:32:03.460Z,100.00
2023-01-17T07:37:06.879Z,100.00
2023-01-17T07:42:10.081Z,100.00
2023-01-17T07:47:13.196Z,100.00
2023-01-17T07:52:18.130Z,100.00
2023-01-17T07:57:21.557Z,100.00
2023-01-17T08:02:24.755Z,100.00
2023-01-17T08:07:27.861Z,100.00
2023-01-17T08:12:31.171Z,100.00
2023-01-17T08:17:35.092Z,100.00
2023-01-17T08:22:38.627Z,100.00
2023-01-17T08:27:41.864Z,100.00
2023-01-17T08:32:44.922Z,100.00
2023-01-17T08:37:49.322Z,100.00
2023-01-17T08:42:57.218Z,100.00
2023-01-17T08:48:01.625Z,100.00
2023-01-17T08:53:05.032Z,100.00
2023-01-17T08:58:08.443Z,100.00
2023-01-17T09:03:14.642Z,100.00
2023-01-17T09:08:17.924Z,100.00
2023-01-17T09:13:22.675Z,100.00
2023-01-17T09:18:27.221Z,100.00
2023-01-17T09:23:30.623Z,100.00
2023-01-17T09:28:41.303Z,100.00
2023-01-17T09:33:45.050Z,100.00
2023-01-17T09:38:48.551Z,100.00
2023-01-17T09:44:23.490Z,100.00
2023-01-17T09:49:35.718Z,100.00
2023-01-17T09:54:42.457Z,100.00
2023-01-17T10:00:39.059Z,100.00
2023-01-17T10:06:05.009Z,100.00
2023-01-17T10:11:17.076Z,99.84
2023-01-17T10:16:53.137Z,99.70
2023-01-17T10:22:02.547Z,96.31
2023-01-17T10:27:34.430Z,90.39
2023-01-17T10:32:49.790Z,88.37
2023-01-17T10:37:57.056Z,88.07
2023-01-17T10:43:24.911Z,88.80
2023-01-17T10:48:47.783Z,90.91
2023-01-17T10:54:06.243Z,91.65
2023-01-17T10:59:17.686Z,91.42
2023-01-17T11:04:31.092Z,91.14
2023-01-17T11:09:42.609Z,91.86
2023-01-17T11:15:18.171Z,92.71
2023-01-17T11:20:41.275Z,92.48
2023-01-17T11:25:55.212Z,92.90
2023-01-17T11:31:01.238Z,92.94
2023-01-17T11:36:05.038Z,93.66
2023-01-17T11:41:29.308Z,93.19
2023-01-17T11:46:33.468Z,92.53
2023-01-17T11:51:42.560Z,92.54
2023-01-17T11:56:46.697Z,91.74
2023-01-17T12:02:05.277Z,91.31
2023-01-17T12:07:13.180Z,91.46
2023-01-17T12:13:02.168Z,91.24
2023-01-17T12:18:26.671Z,91.27
2023-01-17T12:23:59.271Z,91.45
2023-01-17T12:29:29.111Z,91.28
2023-01-17T12:34:51.658Z,90.27
2023-01-17T12:40:00.905Z,90.56
2023-01-17T12:45:15.876Z,90.54
2023-01-17T12:50:29.035Z,91.28
2023-01-17T12:56:02.669Z,91.68
2023-01-17T13:01:18.839Z,92.12
2023-01-17T13:06:36.533Z,91.89
2023-01-17T13:12:08.190Z,91.83
2023-01-17T13:17:46.622Z,91.91
2023-01-17T13:22:52.184Z,92.50
2023-01-17T13:28:05.744Z,92.92
2023-01-17T13:33:09.086Z,93.20
2023-01-17T13:38:55.171Z,93.17
2023-01-17T13:44:20.124Z,93.73
2023-01-17T13:49:29.330Z,94.42
2023-01-17T13:54:34.583Z,94.84
2023-01-17T13:59:37.691Z,95.29
2023-01-17T14:05:00.246Z,95.51
2023-01-17T14:10:36.954Z,95.65
2023-01-17T14:15:50.923Z,95.71
2023-01-17T14:21:10.956Z,95.68
2023-01-17T14:26:21.602Z,95.73
2023-01-17T14:31:26.821Z,95.93
2023-01-17T14:36:33.322Z,96.45
2023-01-17T14:41:36.532Z,96.87
2023-01-17T14:46:40.233Z,97.19
2023-01-17T14:51:43.478Z,97.40
2023-01-17T14:56:48.399Z,97.66
2023-01-17T15:02:06.667Z,98.00
2023-01-17T15:07:16.910Z,98.19
2023-01-17T15:12:20.359Z,98.42
2023-01-17T15:17:25.108Z,98.49
2023-01-17T15:22:29.979Z,98.45
2023-01-17T15:27:33.869Z,98.31
2023-01-17T15:32:39.177Z,97.92
2023-01-17T15:37:42.347Z,97.73
2023-01-17T15:42:51.791Z,97.46
2023-01-17T15:47:55.485Z,97.24
2023-01-17T15:53:03.846Z,97.10
2023-01-17T15:58:29.039Z,97.16
2023-01-17T16:03:32.476Z,97.19
2023-01-17T16:08:39.311Z,97.06
2023-01-17T16:13:43.580Z,97.00
2023-01-17T16:18:48.653Z,96.80
2023-01-17T16:23:52.576Z,96.50
2023-01-17T16:28:56.501Z,96.40
2023-01-17T16:34:00.735Z,96.37
2023-01-17T16:39:05.043Z,96.39
2023-01-17T16:44:10.116Z,96.67
2023-01-17T16:49:14.766Z,96.80
2023-01-17T16:54:18.889Z,97.09
2023-01-17T16:59:23.059Z,97.17
2023-01-17T17:04:28.173Z,97.70
2023-01-17T17:09:31.884Z,98.54
2023-01-17T17:14:36.223Z,99.08
2023-01-17T17:19:39.653Z,99.02
2023-01-17T17:24:43.267Z,98.78
2023-01-17T17:29:46.569Z,98.29
2023-01-17T17:34:53.467Z,97.62
2023-01-17T17:39:58.149Z,97.10
2023-01-17T17:45:01.823Z,96.54
2023-01-17T17:50:08.719Z,96.08
2023-01-17T17:55:14.951Z,95.82
2023-01-17T18:00:19.683Z,95.70
2023-01-17T18:05:25.200Z,95.67
2023-01-17T18:10:28.515Z,95.66
2023-01-17T18:15:32.027Z,95.60
2023-01-17T18:20:35.644Z,95.77
2023-01-17T18:25:39.776Z,95.96
2023-01-17T18:30:43.697Z,96.25
2023-01-17T18:35:58.772Z,96.59
2023-01-17T18:41:04.503Z,97.26
2023-01-17T18:46:10.770Z,97.45
2023-01-17T18:51:17.878Z,97.78
2023-01-17T18:56:23.388Z,98.26
2023-01-17T19:01:33.728Z,98.73
2023-01-17T19:06:41.638Z,99.23
2023-01-17T19:11:46.537Z,99.55
2023-01-17T19:16:50.066Z,99.86
2023-01-17T19:21:54.332Z,100.00
2023-01-17T19:26:57.897Z,100.00
2023-01-17T19:32:01.417Z,100.00
2023-01-17T19:37:06.529Z,100.00
2023-01-17T19:42:15.757Z,100.00
2023-01-17T19:47:19.234Z,100.00
2023-01-17T19:52:24.502Z,100.00
2023-01-17T19:57:34.887Z,100.00
2023-01-17T20:02:39.133Z,100.00
2023-01-17T20:07:42.512Z,100.00
2023-01-17T20:12:46.031Z,100.00
2023-01-17T20:17:49.440Z,100.00
2023-01-17T20:22:52.958Z,100.00
2023-01-17T20:27:58.250Z,100.00
2023-01-17T20:33:02.241Z,100.00
2023-01-17T20:38:10.870Z,100.00
2023-01-17T20:43:14.901Z,100.00
2023-01-17T20:48:18.224Z,100.00
2023-01-17T20:53:22.544Z,100.00
2023-01-17T20:58:26.060Z,100.00
2023-01-17T21:03:29.774Z,100.00
2023-01-17T21:08:36.164Z,100.00
2023-01-17T21:13:40.497Z,100.00
2023-01-17T21:18:47.858Z,100.00
2023-01-17T21:23:53.735Z,100.00
2023-01-17T21:29:00.450Z,100.00
2023-01-17T21:34:06.750Z,100.00
2023-01-17T21:39:18.987Z,100.00
2023-01-17T21:44:23.928Z,100.00
2023-01-17T21:49:27.043Z,100.00
2023-01-17T21:54:49.790Z,100.00
2023-01-17T21:59:52.992Z,100.00
2023-01-17T22:04:56.619Z,100.00
2023-01-17T22:09:59.726Z,100.00
2023-01-17T22:15:06.819Z,100.00
2023-01-17T22:20:12.070Z,100.00
2023-01-17T22:25:15.483Z,100.00
2023-01-17T22:30:19.877Z,100.00
2023-01-17T22:35:24.155Z,100.00
2023-01-17T22:40:28.356Z,100.00
2023-01-17T22:45:31.799Z,100.00
2023-01-17T22:50:35.120Z,100.00
2023-01-17T22:55:38.521Z,100.00
2023-01-17T23:00:41.834Z,100.00
2023-01-17T23:05:47.102Z,100.00
2023-01-17T23:11:09.133Z,100.00
2023-01-17T23:16:31.299Z,100.00
2023-01-17T23:21:54.466Z,100.00
2023-01-17T23:27:16.312Z,100.00
2023-01-17T23:32:19.620Z,100.00
2023-01-17T23:37:47.405Z,100.00
2023-01-17T23:43:09.559Z,100.00
2023-01-17T23:48:12.970Z,100.00
2023-01-17T23:53:23.563Z,100.00
2023-01-17T23:58:28.293Z,100.00
